createdAt,value
2023-01-20T00:01:37.311Z,6.68
2023-01-20T00:03:41.066Z,6.71
2023-01-20T00:05:50.888Z,6.71
2023-01-20T00:07:52.460Z,6.72
2023-01-20T00:09:54.031Z,6.77
2023-01-20T00:11:55.629Z,6.74
2023-01-20T00:13:59.605Z,6.75
2023-01-20T00:16:02.316Z,6.76
2023-01-20T00:18:04.083Z,6.77
2023-01-20T00:20:08.488Z,6.76
2023-01-20T00:22:10.028Z,6.74
2023-01-20T00:24:11.751Z,6.82
2023-01-20T00:26:15.300Z,6.90
2023-01-20T00:28:17.145Z,6.90
2023-01-20T00:30:18.989Z,6.79
2023-01-20T00:32:20.746Z,6.74
2023-01-20T00:34:22.333Z,6.76
2023-01-20T00:36:26.927Z,6.75
2023-01-20T00:38:28.512Z,6.75
2023-01-20T00:40:30.143Z,6.72
2023-01-20T00:42:32.459Z,6.69
2023-01-20T00:44:33.919Z,6.68
2023-01-20T00:46:35.626Z,6.67
2023-01-20T00:48:37.811Z,6.65
2023-01-20T00:50:39.308Z,6.66
2023-01-20T00:52:42.340Z,6.67
2023-01-20T00:54:43.877Z,6.66
2023-01-20T00:56:45.730Z,6.66
2023-01-20T00:58:47.329Z,6.67
2023-01-20T01:00:50.193Z,6.67
2023-01-20T01:02:54.853Z,6.67
2023-01-20T01:04:56.577Z,6.64
2023-01-20T01:06:58.223Z,6.68
2023-01-20T01:09:01.310Z,6.68
2023-01-20T01:11:03.889Z,6.66
2023-01-20T01:13:06.403Z,6.64
2023-01-20T01:15:09.219Z,6.62
2023-01-20T01:17:10.864Z,6.60
2023-01-20T01:19:12.496Z,6.61
2023-01-20T01:21:16.839Z,6.67
2023-01-20T01:23:18.436Z,6.69
2023-01-20T01:25:21.659Z,6.75
2023-01-20T01:27:23.329Z,6.79
2023-01-20T01:29:25.023Z,6.84
2023-01-20T01:31:26.607Z,6.79
2023-01-20T01:33:28.245Z,6.76
2023-01-20T01:35:29.821Z,6.76
2023-01-20T01:37:31.398Z,6.76
2023-01-20T01:39:32.922Z,6.79
2023-01-20T01:41:35.956Z,6.74
2023-01-20T01:43:38.606Z,6.71
2023-01-20T01:45:40.133Z,6.65
2023-01-20T01:47:49.138Z,6.63
2023-01-20T01:49:51.567Z,6.64
2023-01-20T01:51:58.462Z,6.61
2023-01-20T01:54:05.072Z,6.64
2023-01-20T01:56:07.611Z,6.71
2023-01-20T01:58:16.547Z,6.70
2023-01-20T02:00:18.581Z,6.74
2023-01-20T02:02:24.026Z,6.73
2023-01-20T02:04:27.537Z,6.69
2023-01-20T02:06:32.688Z,6.62
2023-01-20T02:08:34.891Z,6.63
2023-01-20T02:10:36.416Z,6.63
2023-01-20T02:12:38.503Z,6.63
2023-01-20T02:14:45.975Z,6.62
2023-01-20T02:16:58.986Z,6.65
2023-01-20T02:19:20.404Z,6.68
2023-01-20T02:21:49.534Z,6.97
2023-01-20T02:24:23.274Z,7.02
2023-01-20T02:26:51.930Z,6.94
2023-01-20T02:29:28.876Z,7.08
2023-01-20T02:31:59.680Z,7.10
2023-01-20T02:34:04.489Z,7.06
2023-01-20T02:36:09.563Z,7.05
2023-01-20T02:38:16.284Z,7.04
2023-01-20T02:40:30.176Z,7.01
2023-01-20T02:42:37.493Z,6.95
2023-01-20T02:44:42.912Z,6.91
2023-01-20T02:46:52.089Z,6.91
2023-01-20T02:48:59.056Z,6.86
2023-01-20T02:51:05.329Z,6.51
2023-01-20T02:53:09.912Z,6.43
2023-01-20T02:55:15.831Z,6.41
2023-01-20T02:57:23.568Z,6.37
2023-01-20T02:59:30.781Z,6.39
2023-01-20T03:01:36.291Z,6.37
2023-01-20T03:03:43.890Z,6.38
2023-01-20T03:05:52.158Z,6.35
2023-01-20T03:07:55.059Z,6.35
2023-01-20T03:10:01.299Z,6.32
2023-01-20T03:12:09.557Z,6.36
2023-01-20T03:14:14.203Z,6.34
2023-01-20T03:16:19.062Z,6.31
2023-01-20T03:18:20.651Z,6.34
2023-01-20T03:20:23.817Z,6.32
2023-01-20T03:22:25.513Z,6.37
2023-01-20T03:24:29.234Z,6.39
2023-01-20T03:26:31.737Z,6.39
2023-01-20T03:28:33.246Z,6.41
2023-01-20T03:30:34.971Z,6.40
2023-01-20T03:32:36.644Z,6.37
2023-01-20T03:34:41.540Z,6.37
2023-01-20T03:36:46.018Z,6.42
2023-01-20T03:38:48.737Z,6.37
2023-01-20T03:41:10.846Z,6.38
2023-01-20T03:43:20.541Z,6.38
2023-01-20T03:45:29.986Z,6.37
2023-01-20T03:47:47.768Z,6.37
2023-01-20T03:49:54.576Z,6.28
2023-01-20T03:52:03.377Z,6.31
2023-01-20T03:54:09.041Z,6.38
2023-01-20T03:56:16.977Z,6.36
2023-01-20T03:58:22.314Z,6.36
2023-01-20T04:00:29.751Z,6.36
2023-01-20T04:02:33.489Z,6.32
2023-01-20T04:04:38.089Z,6.26
2023-01-20T04:06:42.476Z,6.28
2023-01-20T04:08:50.538Z,6.30
2023-01-20T04:10:54.178Z,6.25
2023-01-20T04:12:55.720Z,6.26
2023-01-20T04:14:57.529Z,6.28
2023-01-20T04:16:59.356Z,6.26
2023-01-20T04:19:00.930Z,6.22
2023-01-20T04:21:03.484Z,6.16
2023-01-20T04:23:06.544Z,6.11
2023-01-20T04:25:14.937Z,6.08
2023-01-20T04:27:16.670Z,6.07
2023-01-20T04:29:18.260Z,6.05
2023-01-20T04:31:30.232Z,6.03
2023-01-20T04:33:32.274Z,5.98
2023-01-20T04:35:33.876Z,5.95
2023-01-20T04:37:35.446Z,5.91
2023-01-20T04:39:36.994Z,5.91
2023-01-20T04:41:39.992Z,5.88
2023-01-20T04:43:43.439Z,5.88
2023-01-20T04:45:45.017Z,5.87
2023-01-20T04:47:46.556Z,5.87
2023-01-20T04:49:48.143Z,5.85
2023-01-20T04:51:49.659Z,5.87
2023-01-20T04:53:51.280Z,5.89
2023-01-20T04:55:52.863Z,5.90
2023-01-20T04:57:55.888Z,5.86
2023-01-20T04:59:57.426Z,5.85
2023-01-20T05:01:59.061Z,5.89
2023-01-20T05:04:00.743Z,5.81
2023-01-20T05:06:02.285Z,5.80
2023-01-20T05:08:03.935Z,5.80
2023-01-20T05:10:06.849Z,5.80
2023-01-20T05:12:08.481Z,5.80
2023-01-20T05:14:12.315Z,5.80
2023-01-20T05:16:13.925Z,5.75
2023-01-20T05:18:15.880Z,5.74
2023-01-20T05:20:17.527Z,5.78
2023-01-20T05:22:19.090Z,5.77
2023-01-20T05:24:20.826Z,5.75
2023-01-20T05:26:23.010Z,5.74
2023-01-20T05:28:24.527Z,5.71
2023-01-20T05:30:27.575Z,5.65
2023-01-20T05:32:29.274Z,5.63
2023-01-20T05:34:30.846Z,5.62
2023-01-20T05:36:32.425Z,5.60
2023-01-20T05:38:33.989Z,5.60
2023-01-20T05:40:35.559Z,5.56
2023-01-20T05:42:37.137Z,5.49
2023-01-20T05:44:38.653Z,5.51
2023-01-20T05:46:41.835Z,5.47
2023-01-20T05:48:47.878Z,5.43
2023-01-20T05:50:49.553Z,5.40
2023-01-20T05:52:51.356Z,5.36
2023-01-20T05:54:52.900Z,5.37
2023-01-20T05:56:54.464Z,5.39
2023-01-20T05:58:56.276Z,5.40
2023-01-20T06:01:04.599Z,5.41
2023-01-20T06:03:07.597Z,5.40
2023-01-20T06:05:09.533Z,5.39
2023-01-20T06:07:11.117Z,5.33
2023-01-20T06:09:12.655Z,5.34
2023-01-20T06:11:14.207Z,5.34
2023-01-20T06:13:16.003Z,5.33
2023-01-20T06:15:17.537Z,5.32
2023-01-20T06:17:19.667Z,5.35
2023-01-20T06:19:22.715Z,5.35
2023-01-20T06:21:24.251Z,5.31
2023-01-20T06:23:25.997Z,5.29
2023-01-20T06:25:27.559Z,5.23
2023-01-20T06:27:29.130Z,5.28
2023-01-20T06:29:30.728Z,5.24
2023-01-20T06:31:32.366Z,5.24
2023-01-20T06:33:34.748Z,5.25
2023-01-20T06:35:37.900Z,5.24
2023-01-20T06:37:39.425Z,5.19
2023-01-20T06:39:40.968Z,5.17
2023-01-20T06:41:42.486Z,5.14
2023-01-20T06:43:44.501Z,5.14
2023-01-20T06:45:46.006Z,5.13
2023-01-20T06:47:48.685Z,5.13
2023-01-20T06:49:50.363Z,5.14
2023-01-20T06:51:53.266Z,5.14
2023-01-20T06:53:55.205Z,5.12
2023-01-20T06:55:58.198Z,5.06
2023-01-20T06:57:59.749Z,5.06
2023-01-20T07:00:01.351Z,5.13
2023-01-20T07:02:03.012Z,5.25
2023-01-20T07:04:05.215Z,5.18
2023-01-20T07:06:15.436Z,5.18
2023-01-20T07:08:18.326Z,5.09
2023-01-20T07:10:19.871Z,5.07
2023-01-20T07:12:21.341Z,5.08
2023-01-20T07:14:22.888Z,5.09
2023-01-20T07:16:24.528Z,5.08
2023-01-20T07:18:26.156Z,5.09
2023-01-20T07:20:27.744Z,5.07
2023-01-20T07:22:29.329Z,5.05
2023-01-20T07:24:32.275Z,5.08
2023-01-20T07:26:36.824Z,5.10
2023-01-20T07:28:38.514Z,5.13
2023-01-20T07:30:40.143Z,5.13
2023-01-20T07:32:41.700Z,5.12
2023-01-20T07:34:43.251Z,5.08
2023-01-20T07:36:44.788Z,5.08
2023-01-20T07:38:47.329Z,5.08
2023-01-20T07:40:50.321Z,5.09
2023-01-20T07:42:52.051Z,5.07
2023-01-20T07:44:53.662Z,5.08
2023-01-20T07:46:55.245Z,5.08
2023-01-20T07:48:56.768Z,5.08
2023-01-20T07:50:59.692Z,5.07
2023-01-20T07:53:01.434Z,5.07
2023-01-20T07:55:03.188Z,5.08
2023-01-20T07:57:06.144Z,5.10
2023-01-20T07:59:07.637Z,5.06
2023-01-20T08:01:10.983Z,5.05
2023-01-20T08:03:12.598Z,5.07
2023-01-20T08:05:14.488Z,5.08
2023-01-20T08:07:16.180Z,5.13
2023-01-20T08:09:17.702Z,5.13
2023-01-20T08:11:20.529Z,5.16
2023-01-20T08:13:23.469Z,5.19
2023-01-20T08:15:25.311Z,5.20
2023-01-20T08:17:26.968Z,5.28
2023-01-20T08:19:28.907Z,5.34
2023-01-20T08:21:33.953Z,5.46
2023-01-20T08:23:36.177Z,5.58
2023-01-20T08:25:37.744Z,5.68
2023-01-20T08:27:39.329Z,5.74
2023-01-20T08:29:42.331Z,5.78
2023-01-20T08:31:43.988Z,5.85
2023-01-20T08:33:46.667Z,5.91
2023-01-20T08:35:48.247Z,5.97
2023-01-20T08:37:49.885Z,6.01
2023-01-20T08:39:51.970Z,6.09
2023-01-20T08:41:53.710Z,6.13
2023-01-20T08:43:55.537Z,6.24
2023-01-20T08:46:05.990Z,6.31
2023-01-20T08:48:07.514Z,6.37
2023-01-20T08:50:10.543Z,6.43
2023-01-20T08:52:12.352Z,6.51
2023-01-20T08:54:14.592Z,6.52
2023-01-20T08:56:17.132Z,6.58
2023-01-20T08:58:18.699Z,6.51
2023-01-20T09:00:21.054Z,6.45
2023-01-20T09:02:23.994Z,6.43
2023-01-20T09:04:25.586Z,6.46
2023-01-20T09:06:27.106Z,6.41
2023-01-20T09:08:28.637Z,6.35
2023-01-20T09:10:32.105Z,6.40
2023-01-20T09:12:33.647Z,6.47
2023-01-20T09:14:35.306Z,6.36
2023-01-20T09:16:36.993Z,6.35
2023-01-20T09:18:40.246Z,6.36
2023-01-20T09:20:41.811Z,6.35
2023-01-20T09:22:43.644Z,6.34
2023-01-20T09:24:45.242Z,6.37
2023-01-20T09:26:47.842Z,6.33
2023-01-20T09:28:49.541Z,6.37
2023-01-20T09:30:56.955Z,6.33
2023-01-20T09:32:58.577Z,6.33
2023-01-20T09:35:01.748Z,6.29
2023-01-20T09:37:03.421Z,6.32
2023-01-20T09:39:04.960Z,6.36
2023-01-20T09:41:16.883Z,6.34
2023-01-20T09:43:30.841Z,6.37
2023-01-20T09:45:37.829Z,6.43
2023-01-20T09:47:43.447Z,6.46
2023-01-20T09:50:01.197Z,6.53
2023-01-20T09:52:13.343Z,6.66
2023-01-20T09:54:18.791Z,6.72
2023-01-20T09:56:24.911Z,6.81
2023-01-20T09:58:33.035Z,6.95
2023-01-20T10:00:36.991Z,7.08
2023-01-20T10:02:41.169Z,7.14
2023-01-20T10:04:47.310Z,7.08
2023-01-20T10:06:52.294Z,7.01
2023-01-20T10:09:06.059Z,6.91
2023-01-20T10:11:12.632Z,7.02
2023-01-20T10:13:20.127Z,7.05
2023-01-20T10:15:26.447Z,7.12
2023-01-20T10:17:33.801Z,7.13
2023-01-20T10:19:39.299Z,7.07
2023-01-20T10:21:45.562Z,7.13
2023-01-20T10:23:52.848Z,7.21
2023-01-20T10:25:59.544Z,7.23
2023-01-20T10:28:09.103Z,7.28
2023-01-20T10:30:13.338Z,7.20
2023-01-20T10:32:24.777Z,7.26
2023-01-20T10:34:33.850Z,7.30
2023-01-20T10:36:36.400Z,7.29
2023-01-20T10:38:50.187Z,7.29
2023-01-20T10:40:57.225Z,7.32
2023-01-20T10:43:09.469Z,7.31
2023-01-20T10:45:19.798Z,7.34
2023-01-20T10:47:30.934Z,7.36
2023-01-20T10:49:53.121Z,7.45
2023-01-20T10:52:09.122Z,7.50
2023-01-20T10:54:22.799Z,7.50
2023-01-20T10:56:42.667Z,7.48
2023-01-20T10:58:45.623Z,7.51
2023-01-20T11:00:47.394Z,7.49
2023-01-20T11:02:49.257Z,7.56
2023-01-20T11:04:55.435Z,7.62
2023-01-20T11:07:00.673Z,7.59
2023-01-20T11:09:20.039Z,7.62
2023-01-20T11:11:24.171Z,7.65
2023-01-20T11:13:26.166Z,7.70
2023-01-20T11:15:31.408Z,7.71
2023-01-20T11:17:33.024Z,7.75
2023-01-20T11:19:52.358Z,7.83
2023-01-20T11:21:54.056Z,7.83
2023-01-20T11:23:57.139Z,7.82
2023-01-20T11:26:00.756Z,7.64
2023-01-20T11:28:02.478Z,7.66
2023-01-20T11:30:08.104Z,7.69
2023-01-20T11:32:29.977Z,7.69
2023-01-20T11:34:33.409Z,7.71
2023-01-20T11:36:35.011Z,7.74
2023-01-20T11:38:42.827Z,7.77
2023-01-20T11:40:52.445Z,7.84
2023-01-20T11:42:54.749Z,7.80
2023-01-20T11:45:05.694Z,7.82
2023-01-20T11:47:25.654Z,7.83
2023-01-20T11:49:28.705Z,7.86
2023-01-20T11:51:30.389Z,8.00
2023-01-20T11:53:33.603Z,8.06
2023-01-20T11:55:48.327Z,8.10
2023-01-20T11:57:54.196Z,8.12
2023-01-20T11:59:55.793Z,8.06
2023-01-20T12:01:59.935Z,8.17
2023-01-20T12:04:23.381Z,8.16
2023-01-20T12:06:29.062Z,8.19
2023-01-20T12:08:40.295Z,8.23
2023-01-20T12:10:43.354Z,8.28
2023-01-20T12:12:50.320Z,8.31
2023-01-20T12:14:56.057Z,8.23
2023-01-20T12:17:15.071Z,8.35
2023-01-20T12:19:20.848Z,8.37
2023-01-20T12:21:31.849Z,8.41
2023-01-20T12:23:39.900Z,8.44
2023-01-20T12:25:48.875Z,8.44
2023-01-20T12:27:56.438Z,8.30
2023-01-20T12:30:03.530Z,8.34
2023-01-20T12:32:05.526Z,8.37
2023-01-20T12:34:12.892Z,8.41
2023-01-20T12:36:50.454Z,8.45
2023-01-20T12:39:04.987Z,8.37
2023-01-20T12:41:14.832Z,8.39
2023-01-20T12:43:33.561Z,8.46
2023-01-20T12:45:49.254Z,8.49
2023-01-20T12:48:04.058Z,8.51
2023-01-20T12:50:19.929Z,8.56
2023-01-20T12:52:45.150Z,8.58
2023-01-20T12:54:58.495Z,8.57
2023-01-20T12:57:08.376Z,8.52
2023-01-20T12:59:22.629Z,8.40
2023-01-20T13:01:42.778Z,8.33
2023-01-20T13:04:11.390Z,8.24
2023-01-20T13:06:45.781Z,8.18
2023-01-20T13:08:56.063Z,8.34
2023-01-20T13:11:10.643Z,8.38
2023-01-20T13:13:23.525Z,8.33
2023-01-20T13:15:32.816Z,8.33
2023-01-20T13:17:42.552Z,8.32
2023-01-20T13:19:44.863Z,8.28
2023-01-20T13:22:06.530Z,8.31
2023-01-20T13:24:17.286Z,8.36
2023-01-20T13:26:19.380Z,8.36
2023-01-20T13:28:23.756Z,8.30
2023-01-20T13:30:40.626Z,8.30
2023-01-20T13:32:44.874Z,8.36
2023-01-20T13:34:46.506Z,8.45
2023-01-20T13:37:23.940Z,8.51
2023-01-20T13:39:42.390Z,8.51
2023-01-20T13:41:48.902Z,8.53
2023-01-20T13:43:50.510Z,8.52
2023-01-20T13:46:32.571Z,8.58
2023-01-20T13:48:36.659Z,8.57
2023-01-20T13:50:39.690Z,8.53
2023-01-20T13:53:24.081Z,8.51
2023-01-20T13:55:28.218Z,8.55
2023-01-20T13:57:38.560Z,8.56
2023-01-20T13:59:40.133Z,8.54
2023-01-20T14:01:41.702Z,8.57
2023-01-20T14:04:00.261Z,8.58
2023-01-20T14:06:03.493Z,8.54
2023-01-20T14:08:13.727Z,8.58
2023-01-20T14:10:15.718Z,8.56
2023-01-20T14:12:17.455Z,8.54
2023-01-20T14:14:21.140Z,8.52
2023-01-20T14:16:26.839Z,8.57
2023-01-20T14:18:28.888Z,8.46
2023-01-20T14:20:32.613Z,8.33
2023-01-20T14:22:34.241Z,8.31
2023-01-20T14:24:38.145Z,8.31
2023-01-20T14:26:39.758Z,8.33
2023-01-20T14:28:47.145Z,8.33
2023-01-20T14:30:50.803Z,8.27
2023-01-20T14:32:54.053Z,8.25
2023-01-20T14:34:56.932Z,8.28
2023-01-20T14:37:27.595Z,8.30
2023-01-20T14:39:30.141Z,8.23
2023-01-20T14:41:35.353Z,8.25
2023-01-20T14:43:36.949Z,8.24
2023-01-20T14:45:43.333Z,8.28
2023-01-20T14:47:45.128Z,8.38
2023-01-20T14:49:49.170Z,8.53
2023-01-20T14:51:52.691Z,8.43
2023-01-20T14:54:36.292Z,8.16
2023-01-20T14:56:38.321Z,7.96
2023-01-20T14:58:45.471Z,7.87
2023-01-20T15:00:48.437Z,7.84
2023-01-20T15:03:05.364Z,7.71
2023-01-20T15:05:23.854Z,7.71
2023-01-20T15:07:26.548Z,7.65
2023-01-20T15:09:30.299Z,7.68
2023-01-20T15:11:34.135Z,7.67
2023-01-20T15:13:37.778Z,7.68
2023-01-20T15:15:39.603Z,7.68
2023-01-20T15:18:21.004Z,7.69
2023-01-20T15:20:28.754Z,7.67
2023-01-20T15:22:30.599Z,7.65
2023-01-20T15:24:36.269Z,7.63
2023-01-20T15:26:39.648Z,7.64
2023-01-20T15:28:42.965Z,7.61
2023-01-20T15:30:44.540Z,7.50
2023-01-20T15:32:47.307Z,7.48
2023-01-20T15:34:48.963Z,7.47
2023-01-20T15:36:52.097Z,7.38
2023-01-20T15:38:54.078Z,7.42
2023-01-20T15:40:55.909Z,7.44
2023-01-20T15:42:58.866Z,7.43
2023-01-20T15:45:00.466Z,7.36
2023-01-20T15:47:02.468Z,7.32
2023-01-20T15:49:04.069Z,7.35
2023-01-20T15:51:06.106Z,7.29
2023-01-20T15:53:12.572Z,7.26
2023-01-20T15:55:15.859Z,7.21
2023-01-20T15:57:18.071Z,7.23
2023-01-20T15:59:21.341Z,7.32
2023-01-20T16:01:24.706Z,7.29
2023-01-20T16:03:27.785Z,7.31
2023-01-20T16:05:29.386Z,7.29
2023-01-20T16:07:30.933Z,7.19
2023-01-20T16:09:32.491Z,7.17
2023-01-20T16:11:34.119Z,7.09
2023-01-20T16:13:35.709Z,7.18
2023-01-20T16:15:39.567Z,7.28
2023-01-20T16:17:41.489Z,7.28
2023-01-20T16:19:43.183Z,7.26
2023-01-20T16:21:45.762Z,7.16
2023-01-20T16:23:47.465Z,7.13
2023-01-20T16:25:49.051Z,7.18
2023-01-20T16:27:50.937Z,7.17
2023-01-20T16:29:53.849Z,7.13
2023-01-20T16:31:56.802Z,7.09
2023-01-20T16:33:58.428Z,7.14
2023-01-20T16:36:00.211Z,7.15
2023-01-20T16:38:04.124Z,7.16
2023-01-20T16:40:06.950Z,7.15
2023-01-20T16:42:10.345Z,7.15
2023-01-20T16:44:11.945Z,7.15
2023-01-20T16:46:14.839Z,7.22
2023-01-20T16:48:22.909Z,7.22
2023-01-20T16:50:24.602Z,7.17
2023-01-20T16:52:26.212Z,7.10
2023-01-20T16:54:27.865Z,7.11
2023-01-20T16:56:31.502Z,7.12
2023-01-20T16:58:33.056Z,7.13
2023-01-20T17:00:34.713Z,7.06
2023-01-20T17:02:36.455Z,7.04
2023-01-20T17:04:39.315Z,7.07
2023-01-20T17:06:40.961Z,7.07
2023-01-20T17:08:44.820Z,7.08
2023-01-20T17:10:47.255Z,7.10
2023-01-20T17:12:49.155Z,7.09
2023-01-20T17:14:50.916Z,7.08
2023-01-20T17:16:52.535Z,7.10
2023-01-20T17:18:55.655Z,7.06
2023-01-20T17:21:03.810Z,6.90
2023-01-20T17:23:05.424Z,6.95
2023-01-20T17:25:09.631Z,6.85
2023-01-20T17:27:11.245Z,6.84
2023-01-20T17:29:13.207Z,6.90
2023-01-20T17:31:17.952Z,6.97
2023-01-20T17:33:19.642Z,7.05
2023-01-20T17:35:21.363Z,7.03
2023-01-20T17:37:24.419Z,7.05
2023-01-20T17:39:26.279Z,7.12
2023-01-20T17:41:28.570Z,7.11
2023-01-20T17:43:34.145Z,7.17
2023-01-20T17:45:35.834Z,7.15
2023-01-20T17:47:37.490Z,7.13
2023-01-20T17:49:39.086Z,7.13
2023-01-20T17:51:40.648Z,7.08
2023-01-20T17:53:43.992Z,7.00
2023-01-20T17:55:45.829Z,6.97
2023-01-20T17:57:49.947Z,6.92
2023-01-20T17:59:51.648Z,6.92
2023-01-20T18:01:53.416Z,6.90
2023-01-20T18:03:56.781Z,6.90
2023-01-20T18:05:58.323Z,6.89
2023-01-20T18:07:59.870Z,6.93
2023-01-20T18:10:02.897Z,6.93
2023-01-20T18:12:05.058Z,6.86
2023-01-20T18:14:07.449Z,6.77
2023-01-20T18:16:10.773Z,6.79
2023-01-20T18:18:12.363Z,6.77
2023-01-20T18:20:14.542Z,6.70
2023-01-20T18:22:16.302Z,6.68
2023-01-20T18:24:17.944Z,6.72
2023-01-20T18:26:25.769Z,6.68
2023-01-20T18:28:27.481Z,6.66
2023-01-20T18:30:29.113Z,6.62
2023-01-20T18:32:30.721Z,6.61
2023-01-20T18:34:32.621Z,6.60
2023-01-20T18:36:36.366Z,6.58
2023-01-20T18:38:38.113Z,6.56
2023-01-20T18:40:40.590Z,6.56
2023-01-20T18:42:43.510Z,6.59
2023-01-20T18:44:45.171Z,6.62
2023-01-20T18:46:46.784Z,6.61
2023-01-20T18:48:48.569Z,6.61
2023-01-20T18:50:50.164Z,6.56
2023-01-20T18:52:51.757Z,6.58
2023-01-20T18:54:53.321Z,6.54
2023-01-20T18:56:54.931Z,6.51
2023-01-20T18:58:57.882Z,6.49
2023-01-20T19:01:03.726Z,6.50
2023-01-20T19:03:05.373Z,6.46
2023-01-20T19:05:07.819Z,6.36
2023-01-20T19:07:09.431Z,6.27
2023-01-20T19:09:11.840Z,6.20
2023-01-20T19:11:15.436Z,6.15
2023-01-20T19:13:17.019Z,6.12
2023-01-20T19:15:20.216Z,6.09
2023-01-20T19:17:21.823Z,6.07
2023-01-20T19:19:23.608Z,6.06
2023-01-20T19:21:26.096Z,6.00
2023-01-20T19:23:27.658Z,5.97
2023-01-20T19:25:29.269Z,5.92
2023-01-20T19:27:31.537Z,5.92
2023-01-20T19:29:33.130Z,5.91
2023-01-20T19:31:37.552Z,5.87
2023-01-20T19:33:39.730Z,5.83
2023-01-20T19:35:42.183Z,5.76
2023-01-20T19:37:43.827Z,5.65
2023-01-20T19:39:45.396Z,5.65
2023-01-20T19:41:46.925Z,5.57
2023-01-20T19:43:52.714Z,5.55
2023-01-20T19:45:54.377Z,5.51
2023-01-20T19:47:57.329Z,5.45
2023-01-20T19:49:58.887Z,5.53
2023-01-20T19:52:00.504Z,5.48
2023-01-20T19:54:02.441Z,5.44
2023-01-20T19:56:05.382Z,5.39
2023-01-20T19:58:07.016Z,5.33
2023-01-20T20:00:09.947Z,5.32
2023-01-20T20:02:11.517Z,5.38
2023-01-20T20:04:14.541Z,5.36
2023-01-20T20:06:25.324Z,5.40
2023-01-20T20:08:26.865Z,5.41
2023-01-20T20:10:28.471Z,5.36
2023-01-20T20:12:30.004Z,5.39
2023-01-20T20:14:33.021Z,5.40
2023-01-20T20:16:36.881Z,5.38
2023-01-20T20:18:38.456Z,5.35
2023-01-20T20:20:41.400Z,5.43
2023-01-20T20:22:42.986Z,5.51
2023-01-20T20:24:44.547Z,5.55
2023-01-20T20:26:47.195Z,5.64
2023-01-20T20:28:49.655Z,5.60
2023-01-20T20:30:51.954Z,5.56
2023-01-20T20:32:56.674Z,5.59
2023-01-20T20:34:58.396Z,5.54
2023-01-20T20:37:01.349Z,5.59
2023-01-20T20:39:04.236Z,5.60
2023-01-20T20:41:07.983Z,5.51
2023-01-20T20:43:09.888Z,5.54
2023-01-20T20:45:11.911Z,5.56
2023-01-20T20:47:16.664Z,5.58
2023-01-20T20:49:18.318Z,5.66
2023-01-20T20:51:23.142Z,5.71
2023-01-20T20:53:26.230Z,5.75
2023-01-20T20:55:27.817Z,5.63
2023-01-20T20:57:29.386Z,5.61
2023-01-20T20:59:31.186Z,5.62
2023-01-20T21:01:34.262Z,5.57
2023-01-20T21:03:35.973Z,5.58
2023-01-20T21:05:37.733Z,5.66
2023-01-20T21:07:39.497Z,5.64
2023-01-20T21:09:42.472Z,5.59
2023-01-20T21:11:44.075Z,5.55
2023-01-20T21:13:45.739Z,5.63
2023-01-20T21:15:55.121Z,5.63
2023-01-20T21:17:56.740Z,5.52
2023-01-20T21:19:58.291Z,5.57
2023-01-20T21:21:59.881Z,5.56
2023-01-20T21:24:01.794Z,5.62
2023-01-20T21:26:06.523Z,5.62
2023-01-20T21:28:08.118Z,5.64
2023-01-20T21:30:11.025Z,5.63
2023-01-20T21:32:12.776Z,5.59
2023-01-20T21:34:15.063Z,5.63
2023-01-20T21:36:17.102Z,5.60
2023-01-20T21:38:18.740Z,5.57
2023-01-20T21:40:20.316Z,5.59
2023-01-20T21:42:23.318Z,5.64
2023-01-20T21:44:24.960Z,5.60
2023-01-20T21:46:28.711Z,5.56
2023-01-20T21:48:30.477Z,5.54
2023-01-20T21:50:32.008Z,5.56
2023-01-20T21:52:33.580Z,5.60
2023-01-20T21:54:35.174Z,5.57
2023-01-20T21:56:36.851Z,5.56
2023-01-20T21:58:39.786Z,5.59
2023-01-20T22:00:41.388Z,5.63
2023-01-20T22:02:44.201Z,5.54
2023-01-20T22:04:46.451Z,5.57
2023-01-20T22:06:48.110Z,5.65
2023-01-20T22:08:49.698Z,5.60
2023-01-20T22:10:55.413Z,5.61
2023-01-20T22:12:57.039Z,5.62
2023-01-20T22:15:00.059Z,5.59
2023-01-20T22:17:01.866Z,5.56
2023-01-20T22:19:03.785Z,5.66
2023-01-20T22:21:07.137Z,5.62
2023-01-20T22:23:08.952Z,5.67
2023-01-20T22:25:10.555Z,5.69
2023-01-20T22:27:12.196Z,6.05
2023-01-20T22:29:13.901Z,5.42
2023-01-20T22:31:19.148Z,5.35
2023-01-20T22:33:20.718Z,5.37
2023-01-20T22:35:22.304Z,5.40
2023-01-20T22:37:23.951Z,5.33
2023-01-20T22:39:25.610Z,5.20
2023-01-20T22:41:27.175Z,5.22
2023-01-20T22:43:28.731Z,5.12
2023-01-20T22:45:30.297Z,5.13
2023-01-20T22:47:33.268Z,5.15
2023-01-20T22:49:34.951Z,5.21
2023-01-20T22:51:36.517Z,5.23
2023-01-20T22:53:38.790Z,5.28
2023-01-20T22:55:52.352Z,5.30
2023-01-20T22:58:01.711Z,5.25
2023-01-20T23:00:05.082Z,5.19
2023-01-20T23:02:07.244Z,5.20
2023-01-20T23:04:10.655Z,5.26
2023-01-20T23:06:13.025Z,5.28
2023-01-20T23:08:14.699Z,5.19
2023-01-20T23:10:17.191Z,5.23
2023-01-20T23:12:18.916Z,5.21
2023-01-20T23:14:20.642Z,5.22
2023-01-20T23:16:22.853Z,5.20
2023-01-20T23:18:25.110Z,5.19
2023-01-20T23:20:28.150Z,5.14
2023-01-20T23:22:29.750Z,5.12
2023-01-20T23:24:31.333Z,5.14
2023-01-20T23:26:32.938Z,5.15
2023-01-20T23:28:34.485Z,5.17
2023-01-20T23:30:36.063Z,5.19
2023-01-20T23:32:37.764Z,5.24
2023-01-20T23:34:39.297Z,5.33
2023-01-20T23:36:42.199Z,5.29
2023-01-20T23:38:44.596Z,5.33
2023-01-20T23:40:47.907Z,5.34
2023-01-20T23:42:50.492Z,5.39
2023-01-20T23:44:52.024Z,5.49
2023-01-20T23:46:53.586Z,5.52
2023-01-20T23:48:55.073Z,5.52
2023-01-20T23:50:56.947Z,5.49
2023-01-20T23:52:59.835Z,5.51
2023-01-20T23:55:01.397Z,5.59
2023-01-20T23:57:03.097Z,5.59
2023-01-20T23:59:04.630Z,5.72
